Malinta, Ohio
Current Conditions -  °F | °C
As of 5:53 AM on Saturday 25 Oct 2014 (Local Time) from KDFI Reporting Station
Haze Haze  
Wind Chill: 52°   Ceiling: 4300
Heat Index: 52°   Visibility: 5mi
Dew Point: 49°   Wind: 7mph
Humidity: 89%   Direction: 200°SSW
Pressure: 29.9"   Gusts: NA
Location:  41.32°N, 84.04°W
Report Text: KDFI 250953Z AUTO 20006KT 5SM BR BKN043 BKN050 OVC060 11/09 A2990 RMK AO2 SLP127 T01110094
Loading
Personal Weather Stations






























Interactive Weather Map
Tropical Storm Tracking
New forecast layout! Learn more

10-Day Weather Forecast

Advertisements
Track Severe Weather on mobile